Time;durP1;ratioP1;P1;durP2;ratioP2;P2;SDS_P1;SDS_P2;PMS_P1;PMS_P2;Temp;Humidity;BMP_temperature;BMP_pressure;BME280_temperature;BME280_humidity;BME280_pressure;Samples;Min_cycle;Max_cycle;Signal;HPM_P1;HPM_P2
2021/12/14 00:01:45;;;;;;;;;;;;;;;;;;5073645;28;20003;-82
2021/12/14 00:04:16;;;;;;;;;;;;;;;;;;5084396;28;19916;-81
2021/12/14 00:06:41;;;;;;;;;;;;;;;;;;5093443;28;19912;-81
2021/12/14 00:09:10;;;;;;;;;;;;;;;;;;5093669;28;19984;-82
2021/12/14 00:15:01;;;;;;;;;;;;;;;;;;5093669;28;19916;-81
2021/12/14 00:17:01;;;;;;;;;;;;;;;;;;5093119;28;19923;-81
2021/12/14 00:19:27;;;;;;;;;;;;;;;;;;5093435;28;20354;-83
2021/12/14 00:21:54;;;;;;;;;;;;;;;;;;5093553;28;19970;-82
2021/12/14 00:24:22;;;;;;;;;;;;;;;;;;5114651;28;19961;-82
2021/12/14 00:26:50;;;;;;;;;;;;;;;;;;5115742;28;20030;-82
2021/12/14 00:29:17;;;;;;;;;;;;;;;;;;5115693;28;19961;-76
2021/12/14 00:31:43;;;;;;;;;;;;;;;;;;5115657;28;20408;-82
2021/12/14 00:34:08;;;;;;;;;;;;;;;;;;5115772;28;20020;-82
2021/12/14 00:36:35;;;;;;;;;;;;;;;;;;5115779;28;19916;-77
2021/12/14 00:39:03;;;;;;;;;;;;;;;;;;5116943;28;19916;-79
2021/12/14 00:41:31;;;;;;;;;;;;;;;;;;5128738;28;19928;-77
2021/12/14 00:43:57;;;;;;;;;;;;;;;;;;5146711;27;19931;-79
2021/12/14 00:46:23;;;;;;;;;;;;;;;;;;5136026;27;19907;-78
2021/12/14 00:48:49;;;;;;;;;;;;;;;;;;5132624;27;19974;-83
2021/12/14 00:51:18;;;;;;;;;;;;;;;;;;5121194;27;19927;-80
2021/12/14 00:53:43;;;;;;;;;;;;;;;;;;5116444;28;19915;-76
2021/12/14 00:56:11;;;;;;;;;;;;;;;;;;5119654;27;19942;-77
2021/12/14 00:58:36;;;;;;;;;;;;;;;;;;5124946;27;19980;-79
2021/12/14 01:01:02;;;;;;;;;;;;;;;;;;5118603;27;20437;-80
2021/12/14 01:03:29;;;;;;;;;;;;;;;;;;5126719;27;20379;-79
2021/12/14 01:05:55;;;;;;;;;;;;;;;;;;5126415;27;19941;-77
2021/12/14 01:08:22;;;;;;;;;;;;;;;;;;5115972;27;19923;-77
2021/12/14 01:10:51;;;;;;;;;;;;;;;;;;5128292;27;19998;-79
2021/12/14 01:13:20;;;;;;;;;;;;;;;;;;5135426;27;19915;-78
2021/12/14 01:16:18;;;;;;;;;;;;;;;;;;5118379;27;19916;-80
2021/12/14 01:18:48;;;;;;;;;;;;;;;;;;5133612;27;19915;-81
2021/12/14 01:24:03;;;;;;;;;;;;;;;;;;5124729;27;19926;-81
2021/12/14 01:26:30;;;;;;;;;;;;;;;;;;5119952;27;19919;-79
2021/12/14 01:28:56;;;;;;;;;;;;;;;;;;5114173;28;19920;-76
2021/12/14 01:31:28;;;;;;;;;;;;;;;;;;5114201;28;19916;-76
2021/12/14 01:33:55;;;;;;;;;;;;;;;;;;5127941;27;19960;-78
2021/12/14 01:36:30;;;;;;;;;;;;;;;;;;5135243;27;20014;-78
2021/12/14 01:39:11;;;;;;;;;;;;;;;;;;5117589;27;20010;-77
2021/12/14 01:41:40;;;;;;;;;;;;;;;;;;5114597;28;19916;-80
2021/12/14 01:44:06;;;;;;;;;;;;;;;;;;5114596;28;20397;-80
2021/12/14 01:46:40;;;;;;;;;;;;;;;;;;5114243;28;19969;-80
2021/12/14 01:49:07;;;;;;;;;;;;;;;;;;5114693;28;20316;-78
2021/12/14 01:51:34;;;;;;;;;;;;;;;;;;5121866;27;19927;-78
2021/12/14 01:54:00;;;;;;;;;;;;;;;;;;5134830;27;19919;-80
2021/12/14 01:56:27;;;;;;;;;;;;;;;;;;5133710;27;19931;-77
2021/12/14 01:59:08;;;;;;;;;;;;;;;;;;5134520;27;19919;-78
2021/12/14 02:01:42;;;;;;;;;;;;;;;;;;5124032;27;20328;-83
2021/12/14 02:04:19;;;;;;;;;;;;;;;;;;5135015;27;19925;-81
2021/12/14 02:06:51;;;;;;;;;;;;;;;;;;5134719;27;20006;-76
2021/12/14 02:09:17;;;;;;;;;;;;;;;;;;5133506;27;19957;-83
2021/12/14 02:11:48;;;;;;;;;;;;;;;;;;5133310;27;19915;-79
2021/12/14 02:14:14;;;;;;;;;;;;;;;;;;5114103;28;19923;-80
2021/12/14 02:16:40;;;;;;;;;;;;;;;;;;5114174;28;19969;-80
2021/12/14 02:19:10;;;;;;;;;;;;;;;;;;5114151;28;20390;-79
2021/12/14 02:21:37;;;;;;;;;;;;;;;;;;5114221;28;20263;-76
2021/12/14 02:24:04;;;;;;;;;;;;;;;;;;5114121;28;19916;-77
2021/12/14 02:26:31;;;;;;;;;;;;;;;;;;5113973;28;19955;-82
2021/12/14 02:29:02;;;;;;;;;;;;;;;;;;5118869;28;19915;-78
2021/12/14 02:31:28;;;;;;;;;;;;;;;;;;5134520;27;19916;-80
2021/12/14 02:33:55;;;;;;;;;;;;;;;;;;5133150;27;19947;-80
2021/12/14 02:36:25;;;;;;;;;;;;;;;;;;5123756;28;19916;-78
2021/12/14 02:39:06;;;;;;;;;;;;;;;;;;5114033;28;20010;-80
2021/12/14 02:41:32;;;;;;;;;;;;;;;;;;5116997;28;20328;-78
2021/12/14 02:43:58;;;;;;;;;;;;;;;;;;5117372;27;20156;-80
2021/12/14 02:46:34;;;;;;;;;;;;;;;;;;5122043;27;19920;-81
2021/12/14 02:49:01;;;;;;;;;;;;;;;;;;5119576;27;19927;-79
2021/12/14 02:51:28;;;;;;;;;;;;;;;;;;5124302;27;19920;-82
2021/12/14 02:54:02;;;;;;;;;;;;;;;;;;5124432;27;19926;-78
2021/12/14 02:56:29;;;;;;;;;;;;;;;;;;5128373;27;20375;-84
2021/12/14 02:59:00;;;;;;;;;;;;;;;;;;5126067;27;19927;-83
2021/12/14 03:01:26;;;;;;;;;;;;;;;;;;5136895;27;19915;-82
2021/12/14 03:03:52;;;;;;;;;;;;;;;;;;5132364;27;19964;-80
2021/12/14 03:06:21;;;;;;;;;;;;;;;;;;5133218;27;19916;-81
2021/12/14 03:08:57;;;;;;;;;;;;;;;;;;5129119;27;19927;-78
2021/12/14 03:11:23;;;;;;;;;;;;;;;;;;5128917;27;19919;-80
2021/12/14 03:13:51;;;;;;;;;;;;;;;;;;5129231;27;20370;-82
2021/12/14 03:16:21;;;;;;;;;;;;;;;;;;5125953;27;19971;-82
2021/12/14 03:18:48;;;;;;;;;;;;;;;;;;5122674;27;19955;-79
2021/12/14 03:21:18;;;;;;;;;;;;;;;;;;5125463;27;19927;-80
2021/12/14 03:23:44;;;;;;;;;;;;;;;;;;5121249;27;20014;-77
2021/12/14 03:26:10;;;;;;;;;;;;;;;;;;5124412;27;20336;-81
2021/12/14 03:28:37;;;;;;;;;;;;;;;;;;5121630;27;19920;-79
2021/12/14 03:31:22;;;;;;;;;;;;;;;;;;5129120;27;19915;-78
2021/12/14 03:33:51;;;;;;;;;;;;;;;;;;5116475;28;19920;-82
2021/12/14 03:36:20;;;;;;;;;;;;;;;;;;5123590;27;20000;-79
2021/12/14 03:38:52;;;;;;;;;;;;;;;;;;5126558;27;19915;-81
2021/12/14 03:41:19;;;;;;;;;;;;;;;;;;5135999;27;19959;-77
2021/12/14 03:43:59;;;;;;;;;;;;;;;;;;5116301;27;19939;-79
2021/12/14 03:46:28;;;;;;;;;;;;;;;;;;5122103;27;20080;-78
2021/12/14 03:48:54;;;;;;;;;;;;;;;;;;5129165;27;19927;-82
2021/12/14 03:51:21;;;;;;;;;;;;;;;;;;5136936;27;19915;-82
2021/12/14 03:53:48;;;;;;;;;;;;;;;;;;5123475;27;19916;-82
2021/12/14 03:56:13;;;;;;;;;;;;;;;;;;5116367;27;19927;-81
2021/12/14 03:58:40;;;;;;;;;;;;;;;;;;5131535;27;20002;-81
2021/12/14 04:01:09;;;;;;;;;;;;;;;;;;5130931;27;19919;-82
2021/12/14 04:03:36;;;;;;;;;;;;;;;;;;5122468;27;19968;-81
2021/12/14 04:06:03;;;;;;;;;;;;;;;;;;5119255;27;20374;-82
2021/12/14 04:08:29;;;;;;;;;;;;;;;;;;5114868;28;19922;-78
2021/12/14 04:10:55;;;;;;;;;;;;;;;;;;5116085;27;19927;-80
2021/12/14 04:13:23;;;;;;;;;;;;;;;;;;5115937;28;19923;-82
2021/12/14 04:15:49;;;;;;;;;;;;;;;;;;5114879;28;20019;-82
2021/12/14 04:18:14;;;;;;;;;;;;;;;;;;5115998;28;19951;-83
2021/12/14 04:20:41;;;;;;;;;;;;;;;;;;5116100;28;19916;-82
2021/12/14 04:23:08;;;;;;;;;;;;;;;;;;5115924;28;20018;-76
2021/12/14 04:25:34;;;;;;;;;;;;;;;;;;5115815;28;19915;-81
2021/12/14 04:28:03;;;;;;;;;;;;;;;;;;5115779;28;20343;-82
2021/12/14 04:30:29;;;;;;;;;;;;;;;;;;5115596;27;19927;-81
2021/12/14 04:32:56;;;;;;;;;;;;;;;;;;5123404;27;19922;-83
2021/12/14 04:35:22;;;;;;;;;;;;;;;;;;5132116;27;19919;-81
2021/12/14 04:37:53;;;;;;;;;;;;;;;;;;5115828;27;19926;-81
2021/12/14 04:54:06;;;;;;;;;;;;;;;;;;5115657;28;20415;-79
2021/12/14 04:56:39;;;;;;;;;;;;;;;;;;5115147;27;19919;-79
2021/12/14 04:59:10;;;;;;;;;;;;;;;;;;5120943;27;20386;-80
2021/12/14 05:01:38;;;;;;;;;;;;;;;;;;5119864;27;20010;-80
2021/12/14 05:04:05;;;;;;;;;;;;;;;;;;5114474;27;20396;-79
2021/12/14 05:06:44;;;;;;;;;;;;;;;;;;5121050;27;20011;-79
2021/12/14 05:09:23;;;;;;;;;;;;;;;;;;5123689;27;19920;-80
2021/12/14 05:12:15;;;;;;;;;;;;;;;;;;5123769;27;19923;-80
2021/12/14 05:14:41;;;;;;;;;;;;;;;;;;5136627;27;19919;-80
2021/12/14 05:17:08;;;;;;;;;;;;;;;;;;5115586;27;19916;-78
2021/12/14 05:19:35;;;;;;;;;;;;;;;;;;5114783;27;20004;-78
2021/12/14 05:22:05;;;;;;;;;;;;;;;;;;5114970;28;19923;-78
2021/12/14 05:24:31;;;;;;;;;;;;;;;;;;5113467;28;20007;-79
2021/12/14 05:27:02;;;;;;;;;;;;;;;;;;5114622;28;19947;-81
2021/12/14 05:29:28;;;;;;;;;;;;;;;;;;5114674;28;19923;-79
2021/12/14 05:31:55;;;;;;;;;;;;;;;;;;5114759;28;20006;-79
2021/12/14 05:34:22;;;;;;;;;;;;;;;;;;5114664;28;19922;-79
2021/12/14 05:36:47;;;;;;;;;;;;;;;;;;5115032;28;19916;-79
2021/12/14 05:44:33;;;;;;;;;;;;;;;;;;5137858;28;19931;-80
2021/12/14 05:47:01;;;;;;;;;;;;;;;;;;5149633;27;19926;-78
2021/12/14 05:49:28;;;;;;;;;;;;;;;;;;5145583;27;19927;-79
2021/12/14 05:51:54;;;;;;;;;;;;;;;;;;5137169;27;19916;-77
2021/12/14 05:54:26;;;;;;;;;;;;;;;;;;5135679;27;19930;-78
2021/12/14 05:56:53;;;;;;;;;;;;;;;;;;5134812;27;19948;-78
2021/12/14 05:59:20;;;;;;;;;;;;;;;;;;5134918;27;20018;-77
2021/12/14 06:01:46;;;;;;;;;;;;;;;;;;5135113;27;19916;-77
2021/12/14 06:04:12;;;;;;;;;;;;;;;;;;5134897;27;19922;-77
2021/12/14 06:06:40;;;;;;;;;;;;;;;;;;5134847;27;19927;-80
2021/12/14 06:09:09;;;;;;;;;;;;;;;;;;5134875;27;19922;-79
2021/12/14 06:11:35;;;;;;;;;;;;;;;;;;5134799;27;19915;-78
2021/12/14 06:14:00;;;;;;;;;;;;;;;;;;5134660;27;19923;-79
2021/12/14 06:16:26;;;;;;;;;;;;;;;;;;5137922;27;20000;-78
2021/12/14 06:18:51;;;;;;;;;;;;;;;;;;5139028;27;19923;-80
2021/12/14 06:21:27;;;;;;;;;;;;;;;;;;5139369;27;19916;-81
2021/12/14 06:23:59;;;;;;;;;;;;;;;;;;5139142;27;19968;-74
2021/12/14 06:26:35;;;;;;;;;;;;;;;;;;5139078;27;19983;-73
2021/12/14 06:29:04;;;;;;;;;;;;;;;;;;5138661;27;20298;-74
2021/12/14 06:31:30;;;;;;;;;;;;;;;;;;5138639;27;19959;-76
2021/12/14 06:33:55;;;;;;;;;;;;;;;;;;5138620;27;19955;-76
2021/12/14 06:36:52;;;;;;;;;;;;;;;;;;5138669;27;19977;-75
2021/12/14 06:39:18;;;;;;;;;;;;;;;;;;5115551;27;19961;-76
2021/12/14 06:41:43;;;;;;;;;;;;;;;;;;5138647;27;19915;-80
2021/12/14 06:44:09;;;;;;;;;;;;;;;;;;5137145;27;20267;-76
2021/12/14 06:46:35;;;;;;;;;;;;;;;;;;5138670;27;19915;-79
2021/12/14 06:49:01;;;;;;;;;;;;;;;;;;5138870;27;19919;-76
2021/12/14 06:51:28;;;;;;;;;;;;;;;;;;5138375;27;20340;-83
2021/12/14 06:54:13;;;;;;;;;;;;;;;;;;5137115;27;20402;-80
2021/12/14 06:56:39;;;;;;;;;;;;;;;;;;5137604;27;20298;-80
2021/12/14 06:59:06;;;;;;;;;;;;;;;;;;5138482;27;20006;-79
2021/12/14 07:01:34;;;;;;;;;;;;;;;;;;5138573;27;19915;-82
2021/12/14 07:04:02;;;;;;;;;;;;;;;;;;5138357;27;19952;-77
2021/12/14 07:06:35;;;;;;;;;;;;;;;;;;5138322;27;19956;-76
2021/12/14 07:09:09;;;;;;;;;;;;;;;;;;5136651;27;19920;-76
2021/12/14 07:11:36;;;;;;;;;;;;;;;;;;5137909;27;19940;-76
2021/12/14 07:14:02;;;;;;;;;;;;;;;;;;5137841;27;19922;-79
2021/12/14 07:16:31;;;;;;;;;;;;;;;;;;5138198;27;19916;-79
2021/12/14 07:18:58;;;;;;;;;;;;;;;;;;5138005;27;19915;-87
2021/12/14 07:21:38;;;;;;;;;;;;;;;;;;5137894;27;19969;-79
2021/12/14 07:24:27;;;;;;;;;;;;;;;;;;5137882;27;19915;-81
2021/12/14 07:27:16;;;;;;;;;;;;;;;;;;5136626;27;19915;-76
2021/12/14 07:29:41;;;;;;;;;;;;;;;;;;5127984;27;20317;-82
2021/12/14 07:32:07;;;;;;;;;;;;;;;;;;5137560;27;19927;-80
2021/12/14 07:34:33;;;;;;;;;;;;;;;;;;5137426;27;20010;-77
2021/12/14 07:36:58;;;;;;;;;;;;;;;;;;5137597;27;20364;-83
2021/12/14 07:39:24;;;;;;;;;;;;;;;;;;5137366;27;19991;-81
2021/12/14 07:41:51;;;;;;;;;;;;;;;;;;5137695;27;19923;-79
2021/12/14 07:44:32;;;;;;;;;;;;;;;;;;5137588;27;19915;-78
2021/12/14 07:47:00;;;;;;;;;;;;;;;;;;5137238;27;19947;-76
2021/12/14 07:49:27;;;;;;;;;;;;;;;;;;5137081;27;19919;-81
2021/12/14 07:52:02;;;;;;;;;;;;;;;;;;5137275;27;19916;-76
2021/12/14 07:54:29;;;;;;;;;;;;;;;;;;5137346;27;20001;-78
2021/12/14 07:57:00;;;;;;;;;;;;;;;;;;5137004;27;20416;-80
2021/12/14 07:59:30;;;;;;;;;;;;;;;;;;5135737;27;19915;-75
2021/12/14 08:02:13;;;;;;;;;;;;;;;;;;5137282;27;19965;-82
2021/12/14 08:15:49;;;;;;;;;;;;;;;;;;5132040;27;19915;-82
2021/12/14 08:18:24;;;;;;;;;;;;;;;;;;5132233;27;19919;-81
2021/12/14 08:20:51;;;;;;;;;;;;;;;;;;5132151;27;20397;-80
2021/12/14 08:23:22;;;;;;;;;;;;;;;;;;5131963;27;19915;-80
2021/12/14 08:25:49;;;;;;;;;;;;;;;;;;5165496;27;20010;-80
2021/12/14 08:28:18;;;;;;;;;;;;;;;;;;5131976;27;19957;-78
2021/12/14 08:30:51;;;;;;;;;;;;;;;;;;5131842;27;19961;-79
2021/12/14 08:33:19;;;;;;;;;;;;;;;;;;5131927;27;19937;-80
2021/12/14 08:35:44;;;;;;;;;;;;;;;;;;5131918;27;19919;-83
2021/12/14 08:38:13;;;;;;;;;;;;;;;;;;5134309;27;19912;-83
2021/12/14 08:40:42;;;;;;;;;;;;;;;;;;5165109;27;20290;-80
2021/12/14 08:43:13;;;;;;;;;;;;;;;;;;5131684;27;20418;-80
2021/12/14 08:45:45;;;;;;;;;;;;;;;;;;5131727;27;19938;-79
2021/12/14 08:48:11;;;;;;;;;;;;;;;;;;5131530;27;19915;-81
2021/12/14 08:50:56;;;;;;;;;;;;;;;;;;5131375;28;19916;-83
2021/12/14 08:53:26;;;;;;;;;;;;;;;;;;5131471;27;20368;-82
2021/12/14 08:55:55;;;;;;;;;;;;;;;;;;5131474;27;19953;-84
2021/12/14 08:58:21;;;;;;;;;;;;;;;;;;5164644;27;20037;-82
2021/12/14 09:00:48;;;;;;;;;;;;;;;;;;5131804;27;19955;-85
2021/12/14 09:03:32;;;;;;;;;;;;;;;;;;5131272;27;19916;-83
2021/12/14 09:05:59;;;;;;;;;;;;;;;;;;5131500;27;19916;-82
2021/12/14 09:08:24;;;;;;;;;;;;;;;;;;5131863;27;19922;-83
2021/12/14 09:10:51;;;;;;;;;;;;;;;;;;5131212;27;19915;-84
2021/12/14 09:13:17;;;;;;;;;;;;;;;;;;5130993;27;19990;-84
2021/12/14 09:15:42;;;;;;;;;;;;;;;;;;5154892;27;19916;-83
2021/12/14 09:18:09;;;;;;;;;;;;;;;;;;5117277;28;19947;-84
2021/12/14 09:20:36;;;;;;;;;;;;;;;;;;5117280;28;19915;-82
2021/12/14 09:23:05;;;;;;;;;;;;;;;;;;5117283;28;20006;-83
2021/12/14 09:25:31;;;;;;;;;;;;;;;;;;5117116;28;20018;-82
2021/12/14 09:27:58;;;;;;;;;;;;;;;;;;5117126;28;20015;-81
2021/12/14 09:30:28;;;;;;;;;;;;;;;;;;5116986;28;19937;-84
2021/12/14 09:32:54;;;;;;;;;;;;;;;;;;5117261;28;20323;-84
2021/12/14 09:35:22;;;;;;;;;;;;;;;;;;5117027;28;19916;-82
2021/12/14 09:37:49;;;;;;;;;;;;;;;;;;5116926;28;19923;-82
2021/12/14 09:40:26;;;;;;;;;;;;;;;;;;5116852;28;19916;-82
2021/12/14 09:42:53;;;;;;;;;;;;;;;;;;5116789;28;20008;-82
2021/12/14 09:45:21;;;;;;;;;;;;;;;;;;5116742;28;19917;-82
2021/12/14 09:47:47;;;;;;;;;;;;;;;;;;5116643;28;19916;-82
2021/12/14 09:50:15;;;;;;;;;;;;;;;;;;5116841;28;19920;-83
2021/12/14 09:52:43;;;;;;;;;;;;;;;;;;5117146;28;19922;-80
2021/12/14 09:55:10;;;;;;;;;;;;;;;;;;5116940;28;19916;-86
2021/12/14 09:57:38;;;;;;;;;;;;;;;;;;5117056;28;19916;-85
2021/12/14 10:00:07;;;;;;;;;;;;;;;;;;5116722;28;19916;-84
2021/12/14 10:02:35;;;;;;;;;;;;;;;;;;5117023;28;19920;-83
2021/12/14 10:05:11;;;;;;;;;;;;;;;;;;5116651;28;19922;-80
2021/12/14 10:07:37;;;;;;;;;;;;;;;;;;5116664;28;19930;-80
2021/12/14 10:10:05;;;;;;;;;;;;;;;;;;5116554;28;20312;-81
2021/12/14 10:12:49;;;;;;;;;;;;;;;;;;5116177;28;19916;-82
2021/12/14 10:15:18;;;;;;;;;;;;;;;;;;5149109;27;19927;-86
2021/12/14 10:17:44;;;;;;;;;;;;;;;;;;5116476;28;19920;-86
2021/12/14 10:20:12;;;;;;;;;;;;;;;;;;5116366;28;19912;-86
2021/12/14 10:22:38;;;;;;;;;;;;;;;;;;5116191;28;19916;-85
2021/12/14 10:25:07;;;;;;;;;;;;;;;;;;5116133;28;19916;-82
2021/12/14 10:27:34;;;;;;;;;;;;;;;;;;5116036;27;20309;-81
2021/12/14 10:30:01;;;;;;;;;;;;;;;;;;5116120;28;19960;-82
2021/12/14 10:32:29;;;;;;;;;;;;;;;;;;5115818;28;19916;-80
2021/12/14 10:35:01;;;;;;;;;;;;;;;;;;5148975;27;20267;-83
2021/12/14 10:37:38;;;;;;;;;;;;;;;;;;5114479;28;19916;-83
2021/12/14 10:43:06;;;;;;;;;;;;;;;;;;5093909;28;19951;-79
2021/12/14 10:45:32;;;;;;;;;;;;;;;;;;5115665;28;19915;-78
2021/12/14 10:47:59;;;;;;;;;;;;;;;;;;5115617;28;19916;-80
2021/12/14 10:50:26;;;;;;;;;;;;;;;;;;5115501;28;20276;-80
2021/12/14 10:52:51;;;;;;;;;;;;;;;;;;5115571;28;20379;-79
2021/12/14 10:55:25;;;;;;;;;;;;;;;;;;5115439;28;19922;-81
2021/12/14 10:57:51;;;;;;;;;;;;;;;;;;5148620;27;20272;-80
2021/12/14 11:00:30;;;;;;;;;;;;;;;;;;5115506;28;19916;-80
2021/12/14 11:03:02;;;;;;;;;;;;;;;;;;5115491;28;20439;-78
2021/12/14 11:05:28;;;;;;;;;;;;;;;;;;5115317;28;19958;-81
2021/12/14 11:07:53;;;;;;;;;;;;;;;;;;5115200;28;19916;-84
2021/12/14 11:10:36;;;;;;;;;;;;;;;;;;5115069;28;19916;-83
2021/12/14 11:13:07;;;;;;;;;;;;;;;;;;5115245;28;19919;-82
2021/12/14 11:15:35;;;;;;;;;;;;;;;;;;5114984;28;19924;-83
2021/12/14 11:18:09;;;;;;;;;;;;;;;;;;5114974;28;19916;-82
2021/12/14 11:20:39;;;;;;;;;;;;;;;;;;5117456;28;20371;-83
2021/12/14 11:23:09;;;;;;;;;;;;;;;;;;5114762;28;19969;-82
2021/12/14 11:25:43;;;;;;;;;;;;;;;;;;5114931;28;19922;-85
2021/12/14 11:28:11;;;;;;;;;;;;;;;;;;5117303;28;19984;-84
2021/12/14 11:30:41;;;;;;;;;;;;;;;;;;5115035;28;20390;-84
2021/12/14 11:33:21;;;;;;;;;;;;;;;;;;5115148;28;19970;-84
2021/12/14 11:35:53;;;;;;;;;;;;;;;;;;5115087;28;20341;-84
2021/12/14 11:38:27;;;;;;;;;;;;;;;;;;5114582;28;20331;-82
2021/12/14 11:40:53;;;;;;;;;;;;;;;;;;5147722;27;19926;-83
2021/12/14 11:43:21;;;;;;;;;;;;;;;;;;5114806;28;20317;-77
2021/12/14 11:45:47;;;;;;;;;;;;;;;;;;5106188;28;19919;-84
2021/12/14 11:48:14;;;;;;;;;;;;;;;;;;5114373;28;20376;-82
2021/12/14 11:50:41;;;;;;;;;;;;;;;;;;5114419;28;19946;-82
2021/12/14 11:53:06;;;;;;;;;;;;;;;;;;5114411;28;20386;-85
2021/12/14 11:55:40;;;;;;;;;;;;;;;;;;5115485;28;19927;-80
2021/12/14 11:58:16;;;;;;;;;;;;;;;;;;5114469;28;19916;-82
2021/12/14 12:01:01;;;;;;;;;;;;;;;;;;5115408;28;20351;-88
2021/12/14 12:03:27;;;;;;;;;;;;;;;;;;5113701;28;20260;-85
2021/12/14 12:06:00;;;;;;;;;;;;;;;;;;5114654;28;19923;-86
2021/12/14 12:11:11;;;;;;;;;;;;;;;;;;5114739;28;20374;-87
2021/12/14 12:13:38;;;;;;;;;;;;;;;;;;5112830;28;20007;-81
2021/12/14 12:16:13;;;;;;;;;;;;;;;;;;5112929;28;19916;-88
2021/12/14 12:18:38;;;;;;;;;;;;;;;;;;5114394;28;20332;-88
2021/12/14 12:21:03;;;;;;;;;;;;;;;;;;5114189;28;20054;-88
2021/12/14 12:23:32;;;;;;;;;;;;;;;;;;5112795;28;20022;-88
2021/12/14 12:26:01;;;;;;;;;;;;;;;;;;5114248;28;20434;-89
2021/12/14 12:28:33;;;;;;;;;;;;;;;;;;5114037;28;19912;-87
2021/12/14 12:31:06;;;;;;;;;;;;;;;;;;5114110;28;19922;-87
2021/12/14 12:33:36;;;;;;;;;;;;;;;;;;5114067;28;20275;-78
2021/12/14 12:36:04;;;;;;;;;;;;;;;;;;5114302;28;20310;-82
2021/12/14 12:38:42;;;;;;;;;;;;;;;;;;5114220;28;19912;-89
2021/12/14 12:41:23;;;;;;;;;;;;;;;;;;5114363;28;19923;-88
2021/12/14 12:44:12;;;;;;;;;;;;;;;;;;5112599;28;19915;-81
2021/12/14 12:46:51;;;;;;;;;;;;;;;;;;5105576;28;19922;-80
2021/12/14 12:49:46;;;;;;;;;;;;;;;;;;5113915;28;19922;-80
2021/12/14 12:52:16;;;;;;;;;;;;;;;;;;5104489;28;20002;-82
2021/12/14 12:54:46;;;;;;;;;;;;;;;;;;5117726;28;20268;-78
2021/12/14 12:57:12;;;;;;;;;;;;;;;;;;5117712;28;20060;-79
2021/12/14 12:59:38;;;;;;;;;;;;;;;;;;5117676;28;19912;-78
2021/12/14 13:02:33;;;;;;;;;;;;;;;;;;5117921;28;19923;-85
2021/12/14 13:05:19;;;;;;;;;;;;;;;;;;5104119;28;19922;-78
2021/12/14 13:07:50;;;;;;;;;;;;;;;;;;5118222;28;20339;-87
2021/12/14 13:10:36;;;;;;;;;;;;;;;;;;5111134;28;19927;-85
2021/12/14 13:13:05;;;;;;;;;;;;;;;;;;5110516;28;19930;-84
2021/12/14 13:15:30;;;;;;;;;;;;;;;;;;5099172;27;19920;-86
2021/12/14 13:18:14;;;;;;;;;;;;;;;;;;5110979;28;19942;-88
2021/12/14 13:20:39;;;;;;;;;;;;;;;;;;5110854;28;19955;-88
2021/12/14 13:23:05;;;;;;;;;;;;;;;;;;5108669;28;19965;-87
2021/12/14 13:25:38;;;;;;;;;;;;;;;;;;5095521;28;19916;-84
2021/12/14 13:28:04;;;;;;;;;;;;;;;;;;5096698;28;19962;-85
2021/12/14 13:30:30;;;;;;;;;;;;;;;;;;5097591;28;19920;-84
2021/12/14 13:32:56;;;;;;;;;;;;;;;;;;5108796;28;20424;-86
2021/12/14 13:35:28;;;;;;;;;;;;;;;;;;5095290;28;19916;-85
2021/12/14 13:38:04;;;;;;;;;;;;;;;;;;5096869;28;19916;-87
2021/12/14 13:40:32;;;;;;;;;;;;;;;;;;5098742;28;19920;-83
2021/12/14 13:43:02;;;;;;;;;;;;;;;;;;5102470;28;20374;-87
2021/12/14 13:45:32;;;;;;;;;;;;;;;;;;5098884;28;20417;-86
2021/12/14 13:47:59;;;;;;;;;;;;;;;;;;5094380;28;19916;-86
2021/12/14 13:50:26;;;;;;;;;;;;;;;;;;5094550;28;20347;-86
2021/12/14 13:52:52;;;;;;;;;;;;;;;;;;5094581;28;19923;-79
2021/12/14 13:55:22;;;;;;;;;;;;;;;;;;5107695;28;19994;-85
2021/12/14 13:57:50;;;;;;;;;;;;;;;;;;5114382;28;19966;-85
2021/12/14 14:00:18;;;;;;;;;;;;;;;;;;5115952;28;19947;-86
2021/12/14 14:02:44;;;;;;;;;;;;;;;;;;5115261;28;19923;-89
2021/12/14 14:05:10;;;;;;;;;;;;;;;;;;5115120;28;19962;-83
2021/12/14 14:07:36;;;;;;;;;;;;;;;;;;5116716;28;19966;-80
2021/12/14 14:10:03;;;;;;;;;;;;;;;;;;5117002;28;19918;-86
2021/12/14 14:14:54;;;;;;;;;;;;;;;;;;5112621;23;19991;-80
2021/12/14 14:17:25;;;;;;;;;;;;;;;;;;5069768;28;19916;-85
2021/12/14 14:19:55;;;;;;;;;;;;;;;;;;5075839;28;19913;-88
2021/12/14 14:22:26;;;;;;;;;;;;;;;;;;5066254;28;19921;-86
2021/12/14 14:25:04;;;;;;;;;;;;;;;;;;5042136;28;19963;-84
2021/12/14 14:27:44;;;;;;;;;;;;;;;;;;5045094;28;20419;-85
2021/12/14 14:30:22;;;;;;;;;;;;;;;;;;5058709;28;20011;-86
2021/12/14 14:33:11;;;;;;;;;;;;;;;;;;5055731;28;20013;-86
2021/12/14 14:35:41;;;;;;;;;;;;;;;;;;5062459;28;20433;-86
2021/12/14 14:38:25;;;;;;;;;;;;;;;;;;5058959;28;20338;-84
2021/12/14 14:40:50;;;;;;;;;;;;;;;;;;5041899;28;20316;-86
2021/12/14 14:43:16;;;;;;;;;;;;;;;;;;5050453;28;19928;-85
2021/12/14 14:45:43;;;;;;;;;;;;;;;;;;5047068;28;19935;-86
2021/12/14 14:48:20;;;;;;;;;;;;;;;;;;5063764;28;19962;-84
2021/12/14 14:50:46;;;;;;;;;;;;;;;;;;5073393;28;19923;-86
2021/12/14 14:53:15;;;;;;;;;;;;;;;;;;5049063;28;19929;-84
2021/12/14 14:55:45;;;;;;;;;;;;;;;;;;5066455;28;19921;-84
2021/12/14 14:58:13;;;;;;;;;;;;;;;;;;5072628;28;19913;-86
2021/12/14 15:00:41;;;;;;;;;;;;;;;;;;5041439;28;20365;-86
2021/12/14 15:03:16;;;;;;;;;;;;;;;;;;5054552;28;19924;-85
2021/12/14 15:05:44;;;;;;;;;;;;;;;;;;5054649;28;19917;-84
2021/12/14 15:08:13;;;;;;;;;;;;;;;;;;5054962;28;20427;-87
2021/12/14 15:10:42;;;;;;;;;;;;;;;;;;5054663;28;19923;-85
2021/12/14 15:13:14;;;;;;;;;;;;;;;;;;5053880;28;19921;-87
2021/12/14 15:15:52;;;;;;;;;;;;;;;;;;5070016;28;19917;-88
2021/12/14 15:18:38;;;;;;;;;;;;;;;;;;5054753;28;19925;-86
2021/12/14 15:21:23;;;;;;;;;;;;;;;;;;5056399;28;20292;-85
2021/12/14 15:23:48;;;;;;;;;;;;;;;;;;5065388;28;19917;-85
2021/12/14 15:26:14;;;;;;;;;;;;;;;;;;5074312;28;19916;-85
2021/12/14 15:28:39;;;;;;;;;;;;;;;;;;5073602;28;19917;-88
2021/12/14 15:31:10;;;;;;;;;;;;;;;;;;5074378;28;19917;-86
2021/12/14 15:33:38;;;;;;;;;;;;;;;;;;5074092;28;19953;-87
2021/12/14 15:36:10;;;;;;;;;;;;;;;;;;5070344;28;19962;-88
2021/12/14 15:38:35;;;;;;;;;;;;;;;;;;5056068;28;20351;-82
2021/12/14 15:41:08;;;;;;;;;;;;;;;;;;5072978;28;19937;-87
2021/12/14 15:43:37;;;;;;;;;;;;;;;;;;5073852;28;19931;-84
2021/12/14 15:46:04;;;;;;;;;;;;;;;;;;5073942;28;19935;-85
2021/12/14 15:48:33;;;;;;;;;;;;;;;;;;5074277;28;19917;-83
2021/12/14 15:50:59;;;;;;;;;;;;;;;;;;5074097;28;20026;-89
2021/12/14 15:53:29;;;;;;;;;;;;;;;;;;5055876;28;19966;-88
2021/12/14 15:55:57;;;;;;;;;;;;;;;;;;5055906;28;19916;-88
2021/12/14 15:58:25;;;;;;;;;;;;;;;;;;5073812;28;20417;-81
2021/12/14 16:01:05;;;;;;;;;;;;;;;;;;5073760;28;19917;-86
2021/12/14 16:03:33;;;;;;;;;;;;;;;;;;5055839;28;20364;-88
2021/12/14 16:05:58;;;;;;;;;;;;;;;;;;5073072;28;19917;-88
2021/12/14 16:08:25;;;;;;;;;;;;;;;;;;5055298;28;19966;-89
2021/12/14 16:10:55;;;;;;;;;;;;;;;;;;5055660;28;19923;-89
2021/12/14 16:16:06;;;;;;;;;;;;;;;;;;5070864;28;20421;-88
2021/12/14 16:18:32;;;;;;;;;;;;;;;;;;5073819;28;19928;-88
2021/12/14 16:20:59;;;;;;;;;;;;;;;;;;5073506;28;19916;-87
2021/12/14 16:23:26;;;;;;;;;;;;;;;;;;5072239;28;19917;-86
2021/12/14 16:25:53;;;;;;;;;;;;;;;;;;5075675;28;20372;-85
2021/12/14 16:28:21;;;;;;;;;;;;;;;;;;5076453;28;19916;-87
2021/12/14 16:30:54;;;;;;;;;;;;;;;;;;5076260;28;19916;-84
2021/12/14 16:33:21;;;;;;;;;;;;;;;;;;5077731;28;19916;-87
2021/12/14 16:35:58;;;;;;;;;;;;;;;;;;5077642;28;19916;-83
2021/12/14 16:38:26;;;;;;;;;;;;;;;;;;5076389;28;19940;-81
2021/12/14 16:40:52;;;;;;;;;;;;;;;;;;5077327;28;19923;-77
2021/12/14 16:43:29;;;;;;;;;;;;;;;;;;5077188;28;19916;-85
2021/12/14 16:45:55;;;;;;;;;;;;;;;;;;5077317;28;20379;-80
2021/12/14 16:48:22;;;;;;;;;;;;;;;;;;5075851;28;19916;-83
2021/12/14 16:50:47;;;;;;;;;;;;;;;;;;5076151;28;19924;-80
2021/12/14 16:53:13;;;;;;;;;;;;;;;;;;5077162;28;19912;-80
2021/12/14 16:55:40;;;;;;;;;;;;;;;;;;5077113;28;19922;-80
2021/12/14 16:58:08;;;;;;;;;;;;;;;;;;5075055;28;19982;-82
2021/12/14 17:00:36;;;;;;;;;;;;;;;;;;5066625;28;19966;-83
2021/12/14 17:03:02;;;;;;;;;;;;;;;;;;5076874;28;19916;-83
2021/12/14 17:05:30;;;;;;;;;;;;;;;;;;5077138;28;20031;-83
2021/12/14 17:08:00;;;;;;;;;;;;;;;;;;5058895;28;20441;-78
2021/12/14 17:10:28;;;;;;;;;;;;;;;;;;5076763;28;19916;-85
2021/12/14 17:13:05;;;;;;;;;;;;;;;;;;5076779;28;20322;-81
2021/12/14 17:15:35;;;;;;;;;;;;;;;;;;5076693;28;19920;-83
2021/12/14 17:18:03;;;;;;;;;;;;;;;;;;5076693;28;19917;-80
2021/12/14 17:20:29;;;;;;;;;;;;;;;;;;5076656;28;20026;-83
2021/12/14 17:22:54;;;;;;;;;;;;;;;;;;5076989;28;19954;-86
2021/12/14 17:25:21;;;;;;;;;;;;;;;;;;5077928;28;19916;-81
2021/12/14 17:27:48;;;;;;;;;;;;;;;;;;5059348;28;20379;-82
2021/12/14 17:30:22;;;;;;;;;;;;;;;;;;5076525;28;20278;-83
2021/12/14 17:32:48;;;;;;;;;;;;;;;;;;5076476;28;20402;-83
2021/12/14 17:35:22;;;;;;;;;;;;;;;;;;5076382;28;20003;-86
2021/12/14 17:37:49;;;;;;;;;;;;;;;;;;5076028;28;19917;-84
2021/12/14 17:40:17;;;;;;;;;;;;;;;;;;5076253;28;19962;-84
2021/12/14 17:42:44;;;;;;;;;;;;;;;;;;5076352;28;19917;-84
2021/12/14 17:45:20;;;;;;;;;;;;;;;;;;5076118;28;19916;-81
2021/12/14 17:47:46;;;;;;;;;;;;;;;;;;5077421;28;20375;-83
2021/12/14 17:50:14;;;;;;;;;;;;;;;;;;5076106;28;19962;-85